createdAt,value
2018-07-06T14:46:25.796Z,120.00
2018-07-06T14:47:28.231Z,104.00
2018-07-06T14:48:26.187Z,116.00
2018-07-06T14:49:25.619Z,108.00
2018-07-06T14:50:25.558Z,124.00
2018-07-06T14:51:25.494Z,128.00
2018-07-06T14:52:25.486Z,124.00
2018-07-06T14:53:25.355Z,124.00
2018-07-06T15:44:31.374Z,40.00
2018-07-06T15:45:31.276Z,44.00
2018-07-06T15:46:31.241Z,40.00
2018-07-06T15:47:31.232Z,44.00
2018-07-06T15:48:31.105Z,40.00
2018-07-06T15:49:31.886Z,44.00
2018-07-06T15:50:30.943Z,44.00
2018-07-06T17:30:01.563Z,8896.00
2018-07-06T17:31:01.456Z,9196.00
2018-07-06T17:32:01.471Z,9340.00
2018-07-06T17:33:09.531Z,9480.00
2018-07-06T17:34:10.145Z,9620.00
2018-07-06T17:35:01.413Z,9576.00
2018-07-06T17:36:09.551Z,9432.00
2018-07-06T17:37:09.463Z,9272.00
2018-07-06T17:38:01.407Z,9064.00
2018-07-06T17:39:01.449Z,8648.00
2018-07-06T17:40:01.355Z,8028.00
2018-07-06T17:41:01.351Z,7276.00
2018-07-06T17:42:01.333Z,6668.00
2018-07-06T17:43:01.325Z,6276.00
2018-07-06T17:44:09.574Z,6212.00
2018-07-06T17:45:01.343Z,6232.00
2018-07-06T17:46:09.925Z,6268.00
2018-07-06T17:47:01.312Z,6604.00
2018-07-06T17:48:01.273Z,7084.00
2018-07-06T17:49:01.351Z,7372.00
2018-07-06T17:50:01.274Z,7256.00
2018-07-06T17:51:01.255Z,7168.00
2018-07-06T17:52:01.231Z,7028.00
2018-07-06T17:53:01.230Z,6652.00
2018-07-06T17:54:01.283Z,6284.00
2018-07-06T17:55:01.879Z,6116.00
2018-07-06T17:56:01.199Z,5960.00
2018-07-06T17:57:01.189Z,5692.00
2018-07-06T17:58:01.165Z,5288.00
2018-07-06T17:59:01.236Z,4912.00
2018-07-06T18:00:01.147Z,4540.00
2018-07-06T18:01:01.152Z,3996.00
2018-07-06T18:02:01.126Z,3732.00
2018-07-06T18:03:01.122Z,3432.00
2018-07-06T18:04:01.196Z,3216.00
2018-07-06T18:05:01.103Z,3028.00
2018-07-06T18:06:01.081Z,3096.00
2018-07-06T18:07:01.089Z,3388.00
2018-07-06T18:08:01.058Z,3688.00
2018-07-06T18:09:01.122Z,3940.00
2018-07-06T18:10:01.084Z,4172.00
2018-07-06T18:11:01.048Z,4208.00
2018-07-06T18:12:01.017Z,4544.00
2018-07-06T18:13:01.031Z,5152.00
2018-07-06T18:14:01.067Z,5500.00
2018-07-06T18:15:00.986Z,5436.00
2018-07-06T18:16:01.835Z,4996.00
2018-07-06T18:17:00.967Z,4504.00
2018-07-06T18:18:00.951Z,4068.00
2018-07-06T18:19:01.027Z,3656.00
2018-07-06T18:20:00.928Z,3284.00
2018-07-06T18:21:00.925Z,3048.00
2018-07-06T18:22:00.909Z,2924.00
2018-07-06T18:23:00.908Z,2764.00
2018-07-06T18:24:00.948Z,2644.00
2018-07-06T18:25:00.883Z,2616.00
2018-07-06T18:26:00.879Z,2636.00
2018-07-06T18:27:00.864Z,2704.00
2018-07-06T18:28:00.847Z,2816.00
2018-07-06T18:29:00.897Z,2880.00
2018-07-06T18:30:00.839Z,2924.00
2018-07-06T18:31:00.817Z,3012.00
2018-07-06T18:32:00.812Z,3140.00
2018-07-06T18:33:00.798Z,3188.00
2018-07-06T18:34:00.858Z,3156.00
2018-07-06T18:35:00.773Z,3096.00
2018-07-06T18:36:01.324Z,3008.00
2018-07-06T18:37:01.329Z,2988.00
2018-07-06T18:38:00.745Z,3020.00
2018-07-06T18:39:00.792Z,2976.00
2018-07-06T18:40:00.720Z,2896.00
2018-07-06T18:41:00.711Z,2772.00
2018-07-06T18:42:00.701Z,2664.00
2018-07-06T18:43:00.690Z,2564.00
2018-07-06T18:44:00.775Z,2472.00
2018-07-06T18:45:00.673Z,2348.00
2018-07-06T18:46:00.660Z,2256.00
2018-07-06T18:47:00.661Z,2224.00
2018-07-06T18:48:00.638Z,2244.00
2018-07-06T18:49:00.634Z,2220.00
2018-07-06T18:50:00.690Z,2196.00
2018-07-06T18:51:00.606Z,2152.00
2018-07-06T18:52:01.341Z,2136.00
2018-07-06T18:53:00.582Z,2144.00
2018-07-06T18:54:01.329Z,2180.00
2018-07-06T18:55:00.642Z,2204.00
2018-07-06T18:56:08.206Z,2236.00
2018-07-06T18:57:01.486Z,2268.00
2018-07-06T18:58:01.368Z,2316.00
2018-07-06T18:59:00.524Z,2356.00
2018-07-06T19:00:00.568Z,2360.00
2018-07-06T19:01:00.502Z,2276.00
2018-07-06T19:02:00.504Z,2188.00
2018-07-06T19:03:00.482Z,2112.00
2018-07-06T19:04:00.463Z,2048.00
2018-07-06T19:05:00.542Z,1956.00
2018-07-06T19:06:00.443Z,1860.00
2018-07-06T19:07:00.433Z,1772.00
2018-07-06T19:08:00.689Z,1692.00
2018-07-06T19:09:00.411Z,1552.00
2018-07-06T19:10:00.474Z,1404.00
2018-07-06T19:11:02.388Z,1300.00
2018-07-06T19:12:00.423Z,1220.00
2018-07-06T19:13:00.372Z,1156.00
2018-07-06T19:14:00.361Z,1076.00
2018-07-06T19:15:00.413Z,1004.00
2018-07-06T19:16:00.339Z,944.00
2018-07-06T19:17:00.399Z,904.00
2018-07-06T19:18:00.314Z,864.00
2018-07-06T19:19:02.871Z,832.00
2018-07-06T19:20:00.398Z,800.00
2018-07-06T19:21:00.289Z,768.00
2018-07-06T19:22:00.291Z,744.00
2018-07-06T19:23:00.868Z,724.00
2018-07-06T19:24:00.255Z,700.00
2018-07-06T19:25:07.858Z,672.00
2018-07-06T19:26:00.265Z,644.00
2018-07-06T19:27:00.223Z,612.00
2018-07-06T19:28:00.215Z,576.00
2018-07-06T19:29:00.211Z,544.00
2018-07-06T19:30:00.258Z,512.00
2018-07-06T19:31:00.226Z,484.00
2018-07-06T19:32:00.186Z,460.00
2018-07-06T19:33:00.172Z,432.00
2018-07-06T19:34:00.153Z,408.00
2018-07-06T19:35:00.214Z,384.00
2018-07-06T19:36:00.123Z,364.00
2018-07-06T19:37:00.120Z,348.00
2018-07-06T19:38:00.101Z,328.00
2018-07-06T19:39:00.171Z,308.00
2018-07-06T19:40:00.148Z,288.00
2018-07-06T19:41:00.073Z,268.00
2018-07-06T19:42:13.728Z,252.00
2018-07-06T19:43:00.066Z,232.00
2018-07-06T19:44:00.228Z,220.00
2018-07-06T19:45:00.118Z,204.00
2018-07-06T19:46:00.022Z,192.00
2018-07-06T19:47:00.010Z,176.00
2018-07-06T19:47:59.993Z,168.00
2018-07-06T19:49:00.001Z,156.00
2018-07-06T19:50:00.039Z,144.00
2018-07-06T19:50:59.962Z,128.00
2018-07-06T19:52:01.025Z,116.00
2018-07-06T19:52:59.950Z,108.00
2018-07-06T19:53:59.940Z,96.00
2018-07-06T19:54:59.990Z,84.00
2018-07-06T19:55:59.910Z,72.00
2018-07-06T19:56:59.901Z,64.00
2018-07-06T19:57:59.910Z,60.00
2018-07-06T19:58:59.892Z,52.00
2018-07-06T19:59:59.942Z,48.00
2018-07-06T20:00:59.857Z,44.00
2018-07-06T20:01:59.859Z,36.00
2018-07-06T20:03:02.448Z,32.00
2018-07-06T20:03:59.886Z,28.00
2018-07-06T20:04:59.887Z,24.00
2018-07-06T20:05:59.805Z,20.00
2018-07-06T20:06:59.855Z,20.00
2018-07-06T20:07:59.858Z,16.00
2018-07-06T20:08:59.776Z,12.00
2018-07-06T20:09:59.821Z,12.00
2018-07-06T20:10:59.751Z,12.00
2018-07-06T20:11:59.740Z,12.00
2018-07-06T20:13:00.445Z,8.00
2018-07-06T20:13:59.724Z,8.00
2018-07-06T20:14:59.771Z,8.00
2018-07-06T20:15:59.699Z,4.00
2018-07-06T20:16:59.691Z,8.00
2018-07-06T20:17:59.677Z,4.00
2018-07-06T20:18:59.672Z,4.00
2018-07-06T20:19:59.718Z,4.00
2018-07-06T20:20:59.652Z,4.00
2018-07-06T20:21:59.637Z,0.00
2018-07-06T20:22:59.646Z,0.00
2018-07-06T20:24:00.445Z,4.00
2018-07-06T20:24:59.708Z,4.00
2018-07-06T20:25:59.595Z,4.00
2018-07-06T20:26:59.589Z,0.00
2018-07-06T20:27:59.572Z,0.00
2018-07-06T20:28:59.608Z,0.00
2018-07-06T20:30:00.124Z,0.00
2018-07-06T20:30:59.541Z,0.00
2018-07-06T20:31:59.533Z,0.00
2018-07-06T20:32:59.519Z,0.00
2018-07-06T20:34:07.053Z,0.00
2018-07-06T20:35:08.287Z,0.00
2018-07-06T20:37:10.324Z,0.00
2018-07-06T20:38:18.330Z,0.00
2018-07-06T20:39:18.318Z,0.00
2018-07-06T20:40:10.280Z,0.00
2018-07-06T20:41:18.354Z,0.00
2018-07-06T20:42:18.924Z,0.00
2018-07-06T20:43:18.388Z,0.00
2018-07-06T20:44:10.183Z,0.00
2018-07-06T20:45:10.257Z,0.00
2018-07-06T20:46:10.154Z,0.00
2018-07-06T20:47:10.145Z,0.00
2018-07-06T20:48:10.134Z,0.00
2018-07-06T20:49:10.133Z,0.00
2018-07-06T20:50:10.114Z,0.00
2018-07-06T20:51:10.172Z,0.00
2018-07-06T20:52:10.092Z,0.00
2018-07-06T20:53:17.602Z,0.00
2018-07-06T20:54:18.227Z,0.00
2018-07-06T20:55:18.324Z,0.00
2018-07-06T20:56:18.774Z,0.00
2018-07-06T20:57:18.201Z,0.00
2018-07-06T20:58:18.259Z,0.00
2018-07-06T20:59:18.335Z,0.00
2018-07-06T21:00:18.328Z,0.00
2018-07-06T21:01:18.243Z,0.00
2018-07-06T21:02:18.213Z,0.00
2018-07-06T21:03:18.217Z,0.00
2018-07-06T21:04:18.150Z,0.00
2018-07-06T21:05:18.147Z,0.00
2018-07-06T21:06:18.161Z,0.00
2018-07-06T21:07:18.112Z,0.00
2018-07-06T21:08:18.004Z,0.00
2018-07-06T21:09:18.109Z,0.00
2018-07-06T21:10:18.135Z,0.00
2018-07-06T21:11:18.097Z,0.00
2018-07-06T21:12:18.063Z,0.00
2018-07-06T21:13:09.868Z,0.00
2018-07-06T21:14:10.869Z,0.00
2018-07-06T21:15:09.864Z,0.00
2018-07-06T21:16:09.904Z,0.00
2018-07-06T21:17:09.829Z,0.00
2018-07-06T21:18:09.813Z,0.00
2018-07-06T21:19:09.807Z,0.00
2018-07-06T21:20:09.796Z,0.00
2018-07-06T21:21:09.853Z,0.00
2018-07-06T21:22:09.815Z,0.00
2018-07-06T21:23:09.766Z,0.00
2018-07-06T21:24:09.771Z,0.00
2018-07-06T21:25:09.740Z,0.00
2018-07-06T21:26:09.788Z,0.00
2018-07-06T21:27:09.773Z,0.00
2018-07-06T21:28:09.705Z,0.00
2018-07-06T21:29:09.699Z,0.00
2018-07-06T21:30:09.695Z,0.00
2018-07-06T21:31:09.738Z,0.00
2018-07-06T21:32:09.677Z,0.00
2018-07-06T21:34:20.061Z,0.00
2018-07-06T21:35:19.830Z,0.00
2018-07-06T21:36:19.888Z,0.00
2018-07-06T21:37:19.819Z,0.00
2018-07-06T21:38:19.794Z,0.00
2018-07-06T21:39:19.783Z,0.00
2018-07-06T21:40:19.783Z,0.00
2018-07-06T21:41:20.065Z,0.00
2018-07-06T21:42:19.757Z,0.00
2018-07-06T21:43:19.765Z,0.00
2018-07-06T21:44:19.734Z,0.00
2018-07-06T21:45:19.722Z,0.00
2018-07-06T21:46:19.775Z,0.00
2018-07-06T21:47:19.703Z,0.00
2018-07-06T21:48:19.691Z,0.00
2018-07-06T21:49:19.677Z,0.00
2018-07-06T21:50:19.671Z,0.00
2018-07-06T21:51:19.722Z,0.00
2018-07-06T21:52:19.652Z,0.00
2018-07-06T21:53:19.641Z,0.00
2018-07-06T21:54:19.633Z,0.00
2018-07-06T21:55:20.532Z,0.00
2018-07-06T21:56:19.670Z,0.00
2018-07-06T21:57:19.594Z,0.00
2018-07-06T21:58:19.586Z,0.00
2018-07-06T21:59:19.579Z,0.00
2018-07-06T22:00:19.572Z,0.00
2018-07-06T22:01:19.615Z,0.00
2018-07-06T22:02:19.543Z,0.00
2018-07-06T22:03:19.531Z,0.00
2018-07-06T22:04:19.525Z,0.00
2018-07-06T22:05:19.516Z,0.00
2018-07-06T22:06:27.699Z,0.00
2018-07-06T22:07:19.502Z,0.00
2018-07-06T22:08:19.481Z,0.00
2018-07-06T22:09:19.470Z,0.00
2018-07-06T22:10:19.458Z,0.00
2018-07-06T22:11:19.564Z,0.00
2018-07-06T22:12:19.436Z,0.00
2018-07-06T22:13:19.428Z,0.00
2018-07-06T22:14:19.424Z,0.00
2018-07-06T22:15:19.420Z,0.00
2018-07-06T22:16:19.464Z,0.00
2018-07-06T22:17:19.391Z,0.00
2018-07-06T22:18:19.375Z,0.00
2018-07-06T22:19:19.364Z,0.00
2018-07-06T22:20:19.352Z,0.00
2018-07-06T22:21:19.403Z,0.00
2018-07-06T22:22:19.345Z,0.00
2018-07-06T22:23:19.322Z,0.00
2018-07-06T22:24:19.316Z,0.00
2018-07-06T22:25:19.300Z,0.00
2018-07-06T22:26:19.352Z,0.00
2018-07-06T22:27:20.036Z,0.00
2018-07-06T22:28:19.272Z,0.00
2018-07-06T22:29:19.256Z,0.00
2018-07-06T22:30:19.253Z,0.00
2018-07-06T22:31:19.297Z,0.00
2018-07-06T22:32:19.250Z,0.00
2018-07-06T22:33:19.217Z,0.00
2018-07-06T22:34:19.217Z,0.00
2018-07-06T22:35:19.197Z,0.00
2018-07-06T22:36:19.251Z,0.00
2018-07-06T22:37:19.183Z,0.00
2018-07-06T22:38:19.185Z,0.00
2018-07-06T22:39:19.156Z,0.00
2018-07-06T22:40:19.144Z,0.00
2018-07-06T22:41:19.197Z,0.00
2018-07-06T22:42:19.125Z,0.00
2018-07-06T22:43:19.117Z,0.00
2018-07-06T22:44:19.103Z,0.00
2018-07-06T22:45:19.092Z,0.00
2018-07-06T22:46:19.161Z,0.00
2018-07-06T22:47:19.069Z,0.00
2018-07-06T22:48:20.029Z,0.00
2018-07-06T22:49:19.054Z,0.00
2018-07-06T22:50:19.039Z,0.00
2018-07-06T22:51:19.029Z,0.00
2018-07-06T22:52:19.086Z,0.00
2018-07-06T22:53:19.020Z,0.00
2018-07-06T22:54:18.998Z,0.00
2018-07-06T22:55:18.989Z,0.00
2018-07-06T22:56:18.981Z,0.00
2018-07-06T22:57:19.031Z,0.00
2018-07-06T22:58:18.956Z,0.00
2018-07-06T22:59:18.945Z,0.00
2018-07-06T23:00:18.942Z,0.00
2018-07-06T23:01:18.929Z,0.00
2018-07-06T23:02:19.532Z,0.00
2018-07-06T23:03:18.906Z,0.00
2018-07-06T23:04:18.898Z,0.00
2018-07-06T23:05:18.960Z,0.00
2018-07-06T23:06:18.947Z,0.00
2018-07-06T23:07:18.929Z,0.00
2018-07-06T23:08:18.855Z,0.00
2018-07-06T23:09:19.531Z,0.00
2018-07-06T23:10:18.837Z,0.00
2018-07-06T23:11:18.821Z,0.00
2018-07-06T23:12:18.877Z,0.00
2018-07-06T23:13:18.802Z,0.00
2018-07-06T23:14:18.793Z,0.00
2018-07-06T23:15:18.783Z,0.00
2018-07-06T23:16:18.768Z,0.00
2018-07-06T23:17:18.818Z,0.00
2018-07-06T23:18:18.748Z,0.00
2018-07-06T23:19:18.738Z,0.00
2018-07-06T23:20:18.732Z,0.00
2018-07-06T23:21:18.718Z,0.00
2018-07-06T23:22:18.769Z,0.00
2018-07-06T23:23:18.696Z,0.00
2018-07-06T23:24:18.682Z,0.00
2018-07-06T23:25:18.676Z,0.00
2018-07-06T23:26:18.668Z,0.00
2018-07-06T23:27:18.713Z,0.00
2018-07-06T23:28:18.642Z,0.00
2018-07-06T23:29:18.632Z,0.00
2018-07-06T23:30:19.533Z,0.00
2018-07-06T23:31:18.607Z,0.00
2018-07-06T23:32:18.669Z,0.00
2018-07-06T23:33:18.598Z,0.00
2018-07-06T23:34:18.577Z,0.00
2018-07-06T23:35:19.559Z,0.00
2018-07-06T23:36:18.558Z,0.00
2018-07-06T23:37:18.615Z,0.00
2018-07-06T23:38:18.593Z,0.00
2018-07-06T23:39:18.533Z,0.00
2018-07-06T23:40:18.513Z,0.00
2018-07-06T23:41:18.508Z,0.00
2018-07-06T23:42:18.557Z,0.00
2018-07-06T23:43:18.482Z,0.00
2018-07-06T23:44:18.471Z,0.00
2018-07-06T23:45:18.465Z,0.00
2018-07-06T23:46:18.450Z,0.00
2018-07-06T23:47:18.505Z,0.00
2018-07-06T23:48:18.427Z,0.00
2018-07-06T23:49:18.419Z,0.00
2018-07-06T23:50:18.408Z,0.00
2018-07-06T23:51:19.032Z,0.00
2018-07-06T23:52:18.463Z,0.00
2018-07-06T23:53:18.377Z,0.00
2018-07-06T23:54:18.366Z,0.00
2018-07-06T23:55:18.355Z,0.00
2018-07-06T23:56:18.350Z,0.00
2018-07-06T23:57:18.394Z,0.00
2018-07-06T23:58:18.332Z,0.00
2018-07-06T23:59:18.308Z,0.00
